sensor_id;sensor_type;location;lat;lon;timestamp;temperature;humidity
76102;SHT30;64830;46.910;6.354;2023-03-17T00:00:35;8.34;54.96
76102;SHT30;64830;46.910;6.354;2023-03-17T00:03:01;8.31;55.11
76102;SHT30;64830;46.910;6.354;2023-03-17T00:05:32;8.31;55.12
76102;SHT30;64830;46.910;6.354;2023-03-17T00:08:14;8.27;55.08
76102;SHT30;64830;46.910;6.354;2023-03-17T00:10:41;8.28;55.71
76102;SHT30;64830;46.910;6.354;2023-03-17T00:13:09;8.28;55.22
76102;SHT30;64830;46.910;6.354;2023-03-17T00:15:35;8.28;55.21
76102;SHT30;64830;46.910;6.354;2023-03-17T00:18:01;8.30;54.72
76102;SHT30;64830;46.910;6.354;2023-03-17T00:20:29;8.28;54.65
76102;SHT30;64830;46.910;6.354;2023-03-17T00:23:00;8.32;54.96
76102;SHT30;64830;46.910;6.354;2023-03-17T00:25:32;8.34;54.69
76102;SHT30;64830;46.910;6.354;2023-03-17T00:27:59;8.37;54.77
76102;SHT30;64830;46.910;6.354;2023-03-17T00:30:26;8.38;54.60
76102;SHT30;64830;46.910;6.354;2023-03-17T00:32:55;8.39;54.57
76102;SHT30;64830;46.910;6.354;2023-03-17T00:35:26;8.41;54.38
76102;SHT30;64830;46.910;6.354;2023-03-17T00:37:56;8.42;54.26
76102;SHT30;64830;46.910;6.354;2023-03-17T00:40:25;8.44;54.15
76102;SHT30;64830;46.910;6.354;2023-03-17T00:42:51;8.45;54.18
76102;SHT30;64830;46.910;6.354;2023-03-17T00:45:22;8.46;54.31
76102;SHT30;64830;46.910;6.354;2023-03-17T00:47:52;8.45;54.38
76102;SHT30;64830;46.910;6.354;2023-03-17T00:50:21;8.44;54.84
76102;SHT30;64830;46.910;6.354;2023-03-17T00:52:52;8.42;54.71
76102;SHT30;64830;46.910;6.354;2023-03-17T00:55:18;8.39;54.63
76102;SHT30;64830;46.910;6.354;2023-03-17T00:57:48;8.38;54.74
76102;SHT30;64830;46.910;6.354;2023-03-17T01:00:24;8.37;54.63
76102;SHT30;64830;46.910;6.354;2023-03-17T01:02:51;8.38;54.26
76102;SHT30;64830;46.910;6.354;2023-03-17T01:05:17;8.38;54.33
76102;SHT30;64830;46.910;6.354;2023-03-17T01:07:44;8.38;54.19
76102;SHT30;64830;46.910;6.354;2023-03-17T01:10:15;8.38;54.35
76102;SHT30;64830;46.910;6.354;2023-03-17T01:12:45;8.38;54.55
76102;SHT30;64830;46.910;6.354;2023-03-17T01:15:13;8.38;54.52
76102;SHT30;64830;46.910;6.354;2023-03-17T01:17:39;8.34;54.80
76102;SHT30;64830;46.910;6.354;2023-03-17T01:20:10;8.30;55.09
76102;SHT30;64830;46.910;6.354;2023-03-17T01:22:39;8.31;55.26
76102;SHT30;64830;46.910;6.354;2023-03-17T01:25:05;8.24;55.99
76102;SHT30;64830;46.910;6.354;2023-03-17T01:27:36;8.21;56.12
76102;SHT30;64830;46.910;6.354;2023-03-17T01:30:03;8.14;57.14
76102;SHT30;64830;46.910;6.354;2023-03-17T01:32:32;8.07;56.44
76102;SHT30;64830;46.910;6.354;2023-03-17T01:34:58;8.04;56.45
76102;SHT30;64830;46.910;6.354;2023-03-17T01:37:23;8.00;56.56
76102;SHT30;64830;46.910;6.354;2023-03-17T01:39:49;7.98;56.49
76102;SHT30;64830;46.910;6.354;2023-03-17T01:42:16;7.97;56.91
76102;SHT30;64830;46.910;6.354;2023-03-17T01:47:49;7.91;57.62
76102;SHT30;64830;46.910;6.354;2023-03-17T01:50:15;7.86;57.29
76102;SHT30;64830;46.910;6.354;2023-03-17T01:52:40;7.82;57.27
76102;SHT30;64830;46.910;6.354;2023-03-17T01:55:15;7.83;57.28
76102;SHT30;64830;46.910;6.354;2023-03-17T01:57:55;7.79;57.44
76102;SHT30;64830;46.910;6.354;2023-03-17T02:00:22;7.80;57.56
76102;SHT30;64830;46.910;6.354;2023-03-17T02:02:57;7.75;57.77
76102;SHT30;64830;46.910;6.354;2023-03-17T02:05:29;7.68;57.92
76102;SHT30;64830;46.910;6.354;2023-03-17T02:07:57;7.63;57.98
76102;SHT30;64830;46.910;6.354;2023-03-17T02:10:26;7.59;58.05
76102;SHT30;64830;46.910;6.354;2023-03-17T02:12:56;7.55;58.44
76102;SHT30;64830;46.910;6.354;2023-03-17T02:18:06;7.52;58.15
76102;SHT30;64830;46.910;6.354;2023-03-17T02:22:59;7.44;58.28
76102;SHT30;64830;46.910;6.354;2023-03-17T02:25:30;7.44;58.31
76102;SHT30;64830;46.910;6.354;2023-03-17T02:28:06;7.38;58.56
76102;SHT30;64830;46.910;6.354;2023-03-17T02:30:39;7.31;58.67
76102;SHT30;64830;46.910;6.354;2023-03-17T02:33:04;7.28;58.83
76102;SHT30;64830;46.910;6.354;2023-03-17T02:35:33;7.21;58.96
76102;SHT30;64830;46.910;6.354;2023-03-17T02:37:58;7.15;59.16
76102;SHT30;64830;46.910;6.354;2023-03-17T02:40:28;7.10;59.36
76102;SHT30;64830;46.910;6.354;2023-03-17T02:42:54;7.04;59.29
76102;SHT30;64830;46.910;6.354;2023-03-17T02:45:23;7.01;59.31
76102;SHT30;64830;46.910;6.354;2023-03-17T02:47:50;7.01;59.42
76102;SHT30;64830;46.910;6.354;2023-03-17T02:50:19;6.97;59.51
76102;SHT30;64830;46.910;6.354;2023-03-17T02:52:49;6.97;59.47
76102;SHT30;64830;46.910;6.354;2023-03-17T02:55:15;6.95;59.69
76102;SHT30;64830;46.910;6.354;2023-03-17T02:57:40;6.95;59.62
76102;SHT30;64830;46.910;6.354;2023-03-17T03:00:07;6.90;59.73
76102;SHT30;64830;46.910;6.354;2023-03-17T03:02:38;6.95;59.65
76102;SHT30;64830;46.910;6.354;2023-03-17T03:05:05;6.90;59.65
76102;SHT30;64830;46.910;6.354;2023-03-17T03:07:33;6.89;60.15
76102;SHT30;64830;46.910;6.354;2023-03-17T03:09:59;6.82;59.88
76102;SHT30;64830;46.910;6.354;2023-03-17T03:12:26;6.82;60.25
76102;SHT30;64830;46.910;6.354;2023-03-17T03:14:52;6.83;60.41
76102;SHT30;64830;46.910;6.354;2023-03-17T03:17:17;6.80;60.29
76102;SHT30;64830;46.910;6.354;2023-03-17T03:19:43;6.80;60.32
76102;SHT30;64830;46.910;6.354;2023-03-17T03:22:09;6.79;60.44
76102;SHT30;64830;46.910;6.354;2023-03-17T03:24:35;6.78;60.38
76102;SHT30;64830;46.910;6.354;2023-03-17T03:27:00;6.72;60.66
76102;SHT30;64830;46.910;6.354;2023-03-17T03:29:26;6.72;60.19
76102;SHT30;64830;46.910;6.354;2023-03-17T03:31:51;6.69;59.98
76102;SHT30;64830;46.910;6.354;2023-03-17T03:34:17;6.73;59.89
76102;SHT30;64830;46.910;6.354;2023-03-17T03:36:42;6.73;59.78
76102;SHT30;64830;46.910;6.354;2023-03-17T03:39:08;6.75;59.87
76102;SHT30;64830;46.910;6.354;2023-03-17T03:41:34;6.76;59.83
76102;SHT30;64830;46.910;6.354;2023-03-17T03:44:00;6.76;59.84
76102;SHT30;64830;46.910;6.354;2023-03-17T03:46:26;6.73;59.69
76102;SHT30;64830;46.910;6.354;2023-03-17T03:48:52;6.78;59.71
76102;SHT30;64830;46.910;6.354;2023-03-17T03:51:18;6.76;59.78
76102;SHT30;64830;46.910;6.354;2023-03-17T03:53:43;6.73;59.92
76102;SHT30;64830;46.910;6.354;2023-03-17T03:56:09;6.73;59.97
76102;SHT30;64830;46.910;6.354;2023-03-17T03:58:35;6.71;60.21
76102;SHT30;64830;46.910;6.354;2023-03-17T04:01:05;6.62;60.53
76102;SHT30;64830;46.910;6.354;2023-03-17T04:03:30;6.56;60.48
76102;SHT30;64830;46.910;6.354;2023-03-17T04:05:57;6.55;60.76
76102;SHT30;64830;46.910;6.354;2023-03-17T04:08:22;6.49;60.58
76102;SHT30;64830;46.910;6.354;2023-03-17T04:10:48;6.52;60.65
76102;SHT30;64830;46.910;6.354;2023-03-17T04:13:13;6.48;60.92
76102;SHT30;64830;46.910;6.354;2023-03-17T04:15:39;6.44;61.02
76102;SHT30;64830;46.910;6.354;2023-03-17T04:18:05;6.40;61.18
76102;SHT30;64830;46.910;6.354;2023-03-17T04:20:30;6.38;61.17
76102;SHT30;64830;46.910;6.354;2023-03-17T04:22:56;6.37;61.21
76102;SHT30;64830;46.910;6.354;2023-03-17T04:25:21;6.34;61.55
76102;SHT30;64830;46.910;6.354;2023-03-17T04:27:47;6.33;61.49
76102;SHT30;64830;46.910;6.354;2023-03-17T04:30:13;6.31;61.64
76102;SHT30;64830;46.910;6.354;2023-03-17T04:32:41;6.28;61.66
76102;SHT30;64830;46.910;6.354;2023-03-17T04:35:07;6.27;61.78
76102;SHT30;64830;46.910;6.354;2023-03-17T04:37:35;6.27;61.96
76102;SHT30;64830;46.910;6.354;2023-03-17T04:40:01;6.24;62.23
76102;SHT30;64830;46.910;6.354;2023-03-17T04:42:26;6.23;61.97
76102;SHT30;64830;46.910;6.354;2023-03-17T04:44:51;6.23;61.75
76102;SHT30;64830;46.910;6.354;2023-03-17T04:47:17;6.20;61.82
76102;SHT30;64830;46.910;6.354;2023-03-17T04:49:42;6.17;61.89
76102;SHT30;64830;46.910;6.354;2023-03-17T04:52:08;6.17;61.96
76102;SHT30;64830;46.910;6.354;2023-03-17T04:54:33;6.16;62.18
76102;SHT30;64830;46.910;6.354;2023-03-17T04:57:00;6.13;62.11
76102;SHT30;64830;46.910;6.354;2023-03-17T04:59:26;6.10;62.06
76102;SHT30;64830;46.910;6.354;2023-03-17T05:01:51;6.07;62.34
76102;SHT30;64830;46.910;6.354;2023-03-17T05:04:16;6.05;62.29
76102;SHT30;64830;46.910;6.354;2023-03-17T05:06:42;6.00;62.42
76102;SHT30;64830;46.910;6.354;2023-03-17T05:09:08;5.93;62.89
76102;SHT30;64830;46.910;6.354;2023-03-17T05:11:34;5.88;63.31
76102;SHT30;64830;46.910;6.354;2023-03-17T05:14:00;5.82;63.52
76102;SHT30;64830;46.910;6.354;2023-03-17T05:16:25;5.73;63.76
76102;SHT30;64830;46.910;6.354;2023-03-17T05:18:51;5.72;63.46
76102;SHT30;64830;46.910;6.354;2023-03-17T05:21:16;5.71;63.59
76102;SHT30;64830;46.910;6.354;2023-03-17T05:23:42;5.72;63.42
76102;SHT30;64830;46.910;6.354;2023-03-17T05:26:07;5.68;63.58
76102;SHT30;64830;46.910;6.354;2023-03-17T05:28:33;5.66;63.41
76102;SHT30;64830;46.910;6.354;2023-03-17T05:30:58;5.69;63.68
76102;SHT30;64830;46.910;6.354;2023-03-17T05:33:24;5.68;63.47
76102;SHT30;64830;46.910;6.354;2023-03-17T05:35:49;5.66;64.03
76102;SHT30;64830;46.910;6.354;2023-03-17T05:38:15;5.63;63.96
76102;SHT30;64830;46.910;6.354;2023-03-17T05:40:41;5.65;64.11
76102;SHT30;64830;46.910;6.354;2023-03-17T05:43:07;5.62;63.89
76102;SHT30;64830;46.910;6.354;2023-03-17T05:45:33;5.62;63.97
76102;SHT30;64830;46.910;6.354;2023-03-17T05:47:59;5.61;64.04
76102;SHT30;64830;46.910;6.354;2023-03-17T05:50:24;5.59;64.72
76102;SHT30;64830;46.910;6.354;2023-03-17T05:52:50;5.58;64.52
76102;SHT30;64830;46.910;6.354;2023-03-17T05:55:16;5.58;64.41
76102;SHT30;64830;46.910;6.354;2023-03-17T05:57:42;5.56;64.10
76102;SHT30;64830;46.910;6.354;2023-03-17T06:00:08;5.61;63.93
76102;SHT30;64830;46.910;6.354;2023-03-17T06:02:34;5.61;64.15
76102;SHT30;64830;46.910;6.354;2023-03-17T06:04:59;5.59;64.14
76102;SHT30;64830;46.910;6.354;2023-03-17T06:07:25;5.61;64.23
76102;SHT30;64830;46.910;6.354;2023-03-17T06:09:51;5.59;64.06
76102;SHT30;64830;46.910;6.354;2023-03-17T06:12:16;5.61;64.51
76102;SHT30;64830;46.910;6.354;2023-03-17T06:14:42;5.62;63.90
76102;SHT30;64830;46.910;6.354;2023-03-17T06:17:07;5.68;63.75
76102;SHT30;64830;46.910;6.354;2023-03-17T06:19:36;5.72;63.57
76102;SHT30;64830;46.910;6.354;2023-03-17T06:22:01;5.78;63.55
76102;SHT30;64830;46.910;6.354;2023-03-17T06:24:26;5.85;63.76
76102;SHT30;64830;46.910;6.354;2023-03-17T06:26:52;5.88;63.85
76102;SHT30;64830;46.910;6.354;2023-03-17T06:29:18;5.95;63.83
76102;SHT30;64830;46.910;6.354;2023-03-17T06:31:46;6.03;63.84
76102;SHT30;64830;46.910;6.354;2023-03-17T06:34:22;6.13;63.60
76102;SHT30;64830;46.910;6.354;2023-03-17T06:36:51;6.28;63.27
76102;SHT30;64830;46.910;6.354;2023-03-17T06:39:19;6.38;63.18
76102;SHT30;64830;46.910;6.354;2023-03-17T06:41:48;6.51;63.25
76102;SHT30;64830;46.910;6.354;2023-03-17T06:44:13;6.61;62.71
76102;SHT30;64830;46.910;6.354;2023-03-17T06:46:39;6.69;62.64
76102;SHT30;64830;46.910;6.354;2023-03-17T06:49:05;6.78;62.76
76102;SHT30;64830;46.910;6.354;2023-03-17T06:51:32;6.87;62.74
76102;SHT30;64830;46.910;6.354;2023-03-17T06:53:58;6.97;62.26
76102;SHT30;64830;46.910;6.354;2023-03-17T06:56:23;7.04;62.03
76102;SHT30;64830;46.910;6.354;2023-03-17T06:58:49;7.14;61.80
76102;SHT30;64830;46.910;6.354;2023-03-17T07:01:16;7.23;61.21
76102;SHT30;64830;46.910;6.354;2023-03-17T07:03:42;7.34;61.43
76102;SHT30;64830;46.910;6.354;2023-03-17T07:06:08;7.45;61.56
76102;SHT30;64830;46.910;6.354;2023-03-17T07:08:34;7.62;61.12
76102;SHT30;64830;46.910;6.354;2023-03-17T07:11:00;7.76;61.37
76102;SHT30;64830;46.910;6.354;2023-03-17T07:13:26;7.91;61.11
76102;SHT30;64830;46.910;6.354;2023-03-17T07:15:51;8.13;60.56
76102;SHT30;64830;46.910;6.354;2023-03-17T07:18:18;8.38;59.82
76102;SHT30;64830;46.910;6.354;2023-03-17T07:20:43;8.59;59.73
76102;SHT30;64830;46.910;6.354;2023-03-17T07:23:17;8.73;59.08
76102;SHT30;64830;46.910;6.354;2023-03-17T07:25:44;8.84;57.89
76102;SHT30;64830;46.910;6.354;2023-03-17T07:28:11;9.01;57.45
76102;SHT30;64830;46.910;6.354;2023-03-17T07:30:37;9.07;59.16
76102;SHT30;64830;46.910;6.354;2023-03-17T07:33:02;8.97;58.60
76102;SHT30;64830;46.910;6.354;2023-03-17T07:35:28;8.83;58.89
76102;SHT30;64830;46.910;6.354;2023-03-17T07:37:55;8.76;59.57
76102;SHT30;64830;46.910;6.354;2023-03-17T07:40:20;8.80;59.76
76102;SHT30;64830;46.910;6.354;2023-03-17T07:42:46;8.81;59.57
76102;SHT30;64830;46.910;6.354;2023-03-17T07:45:12;8.84;59.51
76102;SHT30;64830;46.910;6.354;2023-03-17T07:47:37;8.87;60.02
76102;SHT30;64830;46.910;6.354;2023-03-17T07:50:03;8.91;59.36
76102;SHT30;64830;46.910;6.354;2023-03-17T07:52:29;9.03;57.28
76102;SHT30;64830;46.910;6.354;2023-03-17T07:54:54;9.18;55.54
76102;SHT30;64830;46.910;6.354;2023-03-17T07:57:22;9.38;55.35
76102;SHT30;64830;46.910;6.354;2023-03-17T07:59:47;9.55;55.75
76102;SHT30;64830;46.910;6.354;2023-03-17T08:02:14;9.79;54.12
76102;SHT30;64830;46.910;6.354;2023-03-17T08:04:40;9.98;54.58
76102;SHT30;64830;46.910;6.354;2023-03-17T08:07:06;10.12;53.57
76102;SHT30;64830;46.910;6.354;2023-03-17T08:09:32;10.32;53.94
76102;SHT30;64830;46.910;6.354;2023-03-17T08:11:57;10.50;52.80
76102;SHT30;64830;46.910;6.354;2023-03-17T08:14:22;10.66;51.90
76102;SHT30;64830;46.910;6.354;2023-03-17T08:16:48;10.89;53.57
76102;SHT30;64830;46.910;6.354;2023-03-17T08:19:13;11.11;52.91
76102;SHT30;64830;46.910;6.354;2023-03-17T08:21:39;11.34;52.06
76102;SHT30;64830;46.910;6.354;2023-03-17T08:24:04;11.47;50.17
76102;SHT30;64830;46.910;6.354;2023-03-17T08:26:30;11.62;51.46
76102;SHT30;64830;46.910;6.354;2023-03-17T08:28:56;11.77;51.28
76102;SHT30;64830;46.910;6.354;2023-03-17T08:31:21;11.91;51.51
76102;SHT30;64830;46.910;6.354;2023-03-17T08:33:51;12.01;52.34
76102;SHT30;64830;46.910;6.354;2023-03-17T08:36:18;12.15;51.42
76102;SHT30;64830;46.910;6.354;2023-03-17T08:38:45;12.22;51.72
76102;SHT30;64830;46.910;6.354;2023-03-17T08:41:13;12.34;50.63
76102;SHT30;64830;46.910;6.354;2023-03-17T08:43:40;12.46;50.29
76102;SHT30;64830;46.910;6.354;2023-03-17T08:46:21;12.59;50.25
76102;SHT30;64830;46.910;6.354;2023-03-17T08:48:48;12.76;51.06
76102;SHT30;64830;46.910;6.354;2023-03-17T08:51:16;12.93;51.12
76102;SHT30;64830;46.910;6.354;2023-03-17T08:53:42;13.10;50.18
76102;SHT30;64830;46.910;6.354;2023-03-17T08:56:08;13.19;51.52
76102;SHT30;64830;46.910;6.354;2023-03-17T08:58:35;13.19;50.63
76102;SHT30;64830;46.910;6.354;2023-03-17T09:01:02;13.18;51.49
76102;SHT30;64830;46.910;6.354;2023-03-17T09:03:29;13.22;50.89
76102;SHT30;64830;46.910;6.354;2023-03-17T09:05:55;13.24;51.03
76102;SHT30;64830;46.910;6.354;2023-03-17T09:08:21;13.28;51.41
76102;SHT30;64830;46.910;6.354;2023-03-17T09:10:47;13.32;50.95
76102;SHT30;64830;46.910;6.354;2023-03-17T09:13:13;13.38;50.99
76102;SHT30;64830;46.910;6.354;2023-03-17T09:15:39;13.41;50.90
76102;SHT30;64830;46.910;6.354;2023-03-17T09:18:06;13.50;50.65
76102;SHT30;64830;46.910;6.354;2023-03-17T09:20:32;13.60;50.47
76102;SHT30;64830;46.910;6.354;2023-03-17T09:22:58;13.70;49.89
76102;SHT30;64830;46.910;6.354;2023-03-17T09:25:24;13.83;49.40
76102;SHT30;64830;46.910;6.354;2023-03-17T09:27:50;13.91;48.10
76102;SHT30;64830;46.910;6.354;2023-03-17T09:30:15;14.03;48.93
76102;SHT30;64830;46.910;6.354;2023-03-17T09:32:42;14.15;47.09
76102;SHT30;64830;46.910;6.354;2023-03-17T09:35:09;14.29;47.62
76102;SHT30;64830;46.910;6.354;2023-03-17T09:37:35;14.52;47.67
76102;SHT30;64830;46.910;6.354;2023-03-17T09:40:01;14.70;46.89
76102;SHT30;64830;46.910;6.354;2023-03-17T09:45:28;15.01;45.88
76102;SHT30;64830;46.910;6.354;2023-03-17T09:48:22;15.21;47.27
76102;SHT30;64830;46.910;6.354;2023-03-17T09:51:00;15.34;44.67
76102;SHT30;64830;46.910;6.354;2023-03-17T09:54:13;15.34;45.50
76102;SHT30;64830;46.910;6.354;2023-03-17T09:56:14;15.45;45.80
76102;SHT30;64830;46.910;6.354;2023-03-17T09:58:45;15.47;46.83
76102;SHT30;64830;46.910;6.354;2023-03-17T10:01:11;15.63;45.66
76102;SHT30;64830;46.910;6.354;2023-03-17T10:03:37;15.83;45.65
76102;SHT30;64830;46.910;6.354;2023-03-17T10:06:28;15.89;44.93
76102;SHT30;64830;46.910;6.354;2023-03-17T10:11:41;16.07;42.26
76102;SHT30;64830;46.910;6.354;2023-03-17T10:17:32;16.24;46.00
76102;SHT30;64830;46.910;6.354;2023-03-17T10:19:57;16.29;45.94
76102;SHT30;64830;46.910;6.354;2023-03-17T10:22:45;16.30;44.42
76102;SHT30;64830;46.910;6.354;2023-03-17T10:25:18;16.35;44.92
76102;SHT30;64830;46.910;6.354;2023-03-17T10:27:50;16.41;45.87
76102;SHT30;64830;46.910;6.354;2023-03-17T10:30:20;16.56;46.26
76102;SHT30;64830;46.910;6.354;2023-03-17T10:32:47;16.71;45.86
76102;SHT30;64830;46.910;6.354;2023-03-17T10:35:14;16.84;45.41
76102;SHT30;64830;46.910;6.354;2023-03-17T10:37:40;16.88;45.23
76102;SHT30;64830;46.910;6.354;2023-03-17T10:40:17;17.04;44.27
76102;SHT30;64830;46.910;6.354;2023-03-17T10:42:51;17.24;38.82
76102;SHT30;64830;46.910;6.354;2023-03-17T10:45:28;17.31;40.78
76102;SHT30;64830;46.910;6.354;2023-03-17T10:47:56;17.24;42.83
76102;SHT30;64830;46.910;6.354;2023-03-17T10:50:30;17.15;39.75
76102;SHT30;64830;46.910;6.354;2023-03-17T10:55:31;17.28;39.31
76102;SHT30;64830;46.910;6.354;2023-03-17T10:58:06;17.29;36.83
76102;SHT30;64830;46.910;6.354;2023-03-17T11:00:34;17.29;37.37
76102;SHT30;64830;46.910;6.354;2023-03-17T11:03:37;17.26;38.65
76102;SHT30;64830;46.910;6.354;2023-03-17T11:06:07;17.26;37.24
76102;SHT30;64830;46.910;6.354;2023-03-17T11:08:45;17.33;37.28
76102;SHT30;64830;46.910;6.354;2023-03-17T11:11:29;17.43;38.02
76102;SHT30;64830;46.910;6.354;2023-03-17T11:16:27;17.63;36.81
76102;SHT30;64830;46.910;6.354;2023-03-17T11:18:56;17.77;37.19
76102;SHT30;64830;46.910;6.354;2023-03-17T11:21:44;17.69;36.25
76102;SHT30;64830;46.910;6.354;2023-03-17T11:24:17;17.63;34.59
76102;SHT30;64830;46.910;6.354;2023-03-17T11:27:03;17.57;37.11
76102;SHT30;64830;46.910;6.354;2023-03-17T11:32:27;17.56;35.27
76102;SHT30;64830;46.910;6.354;2023-03-17T11:46:11;17.42;38.33
76102;SHT30;64830;46.910;6.354;2023-03-17T11:56:39;17.12;38.19
76102;SHT30;64830;46.910;6.354;2023-03-17T11:59:16;17.19;38.05
76102;SHT30;64830;46.910;6.354;2023-03-17T12:01:57;17.21;37.50
76102;SHT30;64830;46.910;6.354;2023-03-17T12:04:29;17.07;36.45
76102;SHT30;64830;46.910;6.354;2023-03-17T12:07:03;16.98;37.00
76102;SHT30;64830;46.910;6.354;2023-03-17T12:09:37;16.97;37.03
76102;SHT30;64830;46.910;6.354;2023-03-17T12:12:08;16.97;37.18
76102;SHT30;64830;46.910;6.354;2023-03-17T12:14:39;16.95;36.76
76102;SHT30;64830;46.910;6.354;2023-03-17T12:17:22;16.91;37.32
76102;SHT30;64830;46.910;6.354;2023-03-17T12:20:11;16.87;36.39
76102;SHT30;64830;46.910;6.354;2023-03-17T12:22:49;16.79;36.91
76102;SHT30;64830;46.910;6.354;2023-03-17T12:25:31;16.79;37.84
76102;SHT30;64830;46.910;6.354;2023-03-17T12:28:14;16.84;38.48
76102;SHT30;64830;46.910;6.354;2023-03-17T12:33:30;16.94;38.83
76102;SHT30;64830;46.910;6.354;2023-03-17T12:36:00;16.95;38.85
76102;SHT30;64830;46.910;6.354;2023-03-17T12:38:39;16.98;38.91
76102;SHT30;64830;46.910;6.354;2023-03-17T12:41:29;17.00;36.36
76102;SHT30;64830;46.910;6.354;2023-03-17T12:44:23;16.98;38.91
76102;SHT30;64830;46.910;6.354;2023-03-17T12:55:03;16.97;38.02
76102;SHT30;64830;46.910;6.354;2023-03-17T12:57:37;16.98;37.54
76102;SHT30;64830;46.910;6.354;2023-03-17T13:00:22;16.88;37.52
76102;SHT30;64830;46.910;6.354;2023-03-17T13:02:52;16.79;38.38
76102;SHT30;64830;46.910;6.354;2023-03-17T13:05:31;16.74;37.57
76102;SHT30;64830;46.910;6.354;2023-03-17T13:08:00;16.71;38.69
76102;SHT30;64830;46.910;6.354;2023-03-17T13:16:33;16.87;36.79
76102;SHT30;64830;46.910;6.354;2023-03-17T13:19:23;16.91;38.44
76102;SHT30;64830;46.910;6.354;2023-03-17T13:21:51;16.91;38.02
76102;SHT30;64830;46.910;6.354;2023-03-17T13:24:33;16.87;38.55
76102;SHT30;64830;46.910;6.354;2023-03-17T13:27:01;16.85;38.13
76102;SHT30;64830;46.910;6.354;2023-03-17T13:32:32;16.98;37.46
76102;SHT30;64830;46.910;6.354;2023-03-17T13:35:18;16.97;38.08
76102;SHT30;64830;46.910;6.354;2023-03-17T13:46:29;16.97;37.84
76102;SHT30;64830;46.910;6.354;2023-03-17T13:48:56;16.90;37.55
76102;SHT30;64830;46.910;6.354;2023-03-17T13:51:30;16.85;38.41
76102;SHT30;64830;46.910;6.354;2023-03-17T13:56:47;16.79;37.03
76102;SHT30;64830;46.910;6.354;2023-03-17T13:59:18;16.76;38.50
76102;SHT30;64830;46.910;6.354;2023-03-17T14:01:55;16.81;38.07
76102;SHT30;64830;46.910;6.354;2023-03-17T14:05:00;16.81;38.07
76102;SHT30;64830;46.910;6.354;2023-03-17T14:07:26;16.79;36.53
76102;SHT30;64830;46.910;6.354;2023-03-17T14:10:01;16.83;37.40
76102;SHT30;64830;46.910;6.354;2023-03-17T14:12:32;16.87;36.63
76102;SHT30;64830;46.910;6.354;2023-03-17T14:17:36;16.80;37.04
76102;SHT30;64830;46.910;6.354;2023-03-17T14:22:42;16.69;36.84
76102;SHT30;64830;46.910;6.354;2023-03-17T14:25:17;16.62;37.22
76102;SHT30;64830;46.910;6.354;2023-03-17T14:27:48;16.59;37.47
76102;SHT30;64830;46.910;6.354;2023-03-17T14:30:20;16.52;37.87
76102;SHT30;64830;46.910;6.354;2023-03-17T14:33:20;16.48;37.99
76102;SHT30;64830;46.910;6.354;2023-03-17T14:35:49;16.41;36.95
76102;SHT30;64830;46.910;6.354;2023-03-17T14:38:23;16.36;37.74
76102;SHT30;64830;46.910;6.354;2023-03-17T14:40:50;16.35;38.76
76102;SHT30;64830;46.910;6.354;2023-03-17T14:43:23;16.30;39.11
76102;SHT30;64830;46.910;6.354;2023-03-17T14:45:51;16.25;38.88
76102;SHT30;64830;46.910;6.354;2023-03-17T14:48:29;16.22;39.65
76102;SHT30;64830;46.910;6.354;2023-03-17T14:51:03;16.15;40.28
76102;SHT30;64830;46.910;6.354;2023-03-17T14:53:35;16.12;40.26
76102;SHT30;64830;46.910;6.354;2023-03-17T14:56:03;16.12;40.75
76102;SHT30;64830;46.910;6.354;2023-03-17T14:58:40;16.15;40.35
76102;SHT30;64830;46.910;6.354;2023-03-17T15:01:21;16.14;39.91
76102;SHT30;64830;46.910;6.354;2023-03-17T15:04:03;16.14;38.89
76102;SHT30;64830;46.910;6.354;2023-03-17T15:06:29;16.05;39.77
76102;SHT30;64830;46.910;6.354;2023-03-17T15:09:43;16.02;40.33
76102;SHT30;64830;46.910;6.354;2023-03-17T15:11:44;16.04;40.21
76102;SHT30;64830;46.910;6.354;2023-03-17T15:14:30;16.00;40.32
76102;SHT30;64830;46.910;6.354;2023-03-17T15:16:57;16.00;40.54
76102;SHT30;64830;46.910;6.354;2023-03-17T15:22:04;15.83;40.06
76102;SHT30;64830;46.910;6.354;2023-03-17T15:24:39;15.81;40.49
76102;SHT30;64830;46.910;6.354;2023-03-17T15:27:13;15.81;40.40
76102;SHT30;64830;46.910;6.354;2023-03-17T15:29:39;15.80;40.55
76102;SHT30;64830;46.910;6.354;2023-03-17T15:32:13;15.76;40.50
76102;SHT30;64830;46.910;6.354;2023-03-17T15:34:39;15.74;40.12
76102;SHT30;64830;46.910;6.354;2023-03-17T15:37:13;15.76;40.38
76102;SHT30;64830;46.910;6.354;2023-03-17T15:39:39;15.77;40.02
76102;SHT30;64830;46.910;6.354;2023-03-17T15:42:05;15.81;40.54
76102;SHT30;64830;46.910;6.354;2023-03-17T15:44:30;15.90;39.79
76102;SHT30;64830;46.910;6.354;2023-03-17T15:46:56;15.90;39.62
76102;SHT30;64830;46.910;6.354;2023-03-17T15:49:23;15.93;39.77
76102;SHT30;64830;46.910;6.354;2023-03-17T15:51:49;15.91;40.12
76102;SHT30;64830;46.910;6.354;2023-03-17T15:54:14;15.86;39.84
76102;SHT30;64830;46.910;6.354;2023-03-17T15:56:40;15.81;39.38
76102;SHT30;64830;46.910;6.354;2023-03-17T15:59:07;15.79;39.86
76102;SHT30;64830;46.910;6.354;2023-03-17T16:01:34;15.73;40.76
76102;SHT30;64830;46.910;6.354;2023-03-17T16:04:00;15.70;40.80
76102;SHT30;64830;46.910;6.354;2023-03-17T16:06:26;15.67;41.16
76102;SHT30;64830;46.910;6.354;2023-03-17T16:08:51;15.66;41.30
76102;SHT30;64830;46.910;6.354;2023-03-17T16:11:19;15.60;40.84
76102;SHT30;64830;46.910;6.354;2023-03-17T16:13:49;15.53;41.09
76102;SHT30;64830;46.910;6.354;2023-03-17T16:16:23;15.49;41.91
76102;SHT30;64830;46.910;6.354;2023-03-17T16:18:50;15.40;42.21
76102;SHT30;64830;46.910;6.354;2023-03-17T16:21:17;15.31;41.45
76102;SHT30;64830;46.910;6.354;2023-03-17T16:23:43;15.17;42.36
76102;SHT30;64830;46.910;6.354;2023-03-17T16:26:09;15.10;41.96
76102;SHT30;64830;46.910;6.354;2023-03-17T16:28:35;15.04;42.17
76102;SHT30;64830;46.910;6.354;2023-03-17T16:31:01;14.95;41.75
76102;SHT30;64830;46.910;6.354;2023-03-17T16:33:32;14.85;41.76
76102;SHT30;64830;46.910;6.354;2023-03-17T16:35:59;14.79;41.84
76102;SHT30;64830;46.910;6.354;2023-03-17T16:38:27;14.67;42.12
76102;SHT30;64830;46.910;6.354;2023-03-17T16:41:15;14.62;42.30
76102;SHT30;64830;46.910;6.354;2023-03-17T16:43:42;14.56;42.97
76102;SHT30;64830;46.910;6.354;2023-03-17T16:46:10;14.49;42.93
76102;SHT30;64830;46.910;6.354;2023-03-17T16:48:36;14.46;43.38
76102;SHT30;64830;46.910;6.354;2023-03-17T16:51:03;14.46;43.33
76102;SHT30;64830;46.910;6.354;2023-03-17T16:53:29;14.42;43.60
76102;SHT30;64830;46.910;6.354;2023-03-17T16:55:55;14.38;43.91
76102;SHT30;64830;46.910;6.354;2023-03-17T16:58:26;14.35;44.11
76102;SHT30;64830;46.910;6.354;2023-03-17T17:00:57;14.29;43.85
76102;SHT30;64830;46.910;6.354;2023-03-17T17:03:23;14.22;44.10
76102;SHT30;64830;46.910;6.354;2023-03-17T17:05:49;14.15;44.63
76102;SHT30;64830;46.910;6.354;2023-03-17T17:08:15;14.07;44.10
76102;SHT30;64830;46.910;6.354;2023-03-17T17:10:40;14.03;44.01
76102;SHT30;64830;46.910;6.354;2023-03-17T17:13:08;13.94;44.30